createdAt,value
2023-04-13T00:01:16.229Z,12.80
2023-04-13T00:03:45.933Z,12.80
2023-04-13T00:06:13.521Z,12.70
2023-04-13T00:08:42.896Z,12.70
2023-04-13T00:11:10.757Z,12.70
2023-04-13T00:13:41.178Z,12.70
2023-04-13T00:16:10.342Z,12.80
2023-04-13T00:18:37.750Z,12.80
2023-04-13T00:21:05.872Z,12.70
2023-04-13T00:23:36.144Z,12.70
2023-04-13T00:26:03.626Z,12.70
2023-04-13T00:28:31.212Z,12.80
2023-04-13T00:30:59.713Z,12.80
2023-04-13T00:33:27.095Z,12.80
2023-04-13T00:35:54.292Z,12.80
2023-04-13T00:38:24.059Z,12.80
2023-04-13T00:40:54.502Z,12.90
2023-04-13T00:43:22.419Z,13.00
2023-04-13T00:45:50.181Z,12.90
2023-04-13T00:48:18.045Z,12.80
2023-04-13T00:50:45.468Z,12.80
2023-04-13T00:53:13.764Z,12.80
2023-04-13T00:55:42.920Z,12.80
2023-04-13T00:58:10.654Z,12.70
2023-04-13T01:00:38.974Z,12.70
2023-04-13T01:03:06.445Z,12.60
2023-04-13T01:06:01.927Z,12.50
2023-04-13T01:08:38.655Z,12.50
2023-04-13T01:11:13.070Z,12.60
2023-04-13T01:13:52.786Z,12.60
2023-04-13T01:16:29.932Z,12.60
2023-04-13T01:18:59.064Z,12.50
2023-04-13T01:21:29.744Z,12.60
2023-04-13T01:24:06.443Z,12.60
2023-04-13T01:26:49.496Z,12.60
2023-04-13T01:29:18.214Z,12.50
2023-04-13T01:31:45.912Z,12.50
2023-04-13T01:34:14.000Z,12.50
2023-04-13T01:36:41.518Z,12.50
2023-04-13T01:39:10.656Z,12.60
2023-04-13T01:41:38.608Z,12.60
2023-04-13T01:44:07.163Z,12.60
2023-04-13T01:46:37.654Z,12.60
2023-04-13T01:49:21.018Z,12.70
2023-04-13T01:52:11.960Z,12.70
2023-04-13T01:54:43.743Z,12.70
2023-04-13T01:57:13.647Z,12.80
2023-04-13T01:59:41.181Z,12.80
2023-04-13T02:02:17.142Z,12.80
2023-04-13T02:04:44.670Z,12.90
2023-04-13T02:07:12.466Z,12.80
2023-04-13T02:09:45.282Z,12.80
2023-04-13T02:12:12.911Z,12.60
2023-04-13T02:14:40.336Z,12.30
2023-04-13T02:17:08.584Z,12.10
2023-04-13T02:19:36.079Z,12.10
2023-04-13T02:22:03.778Z,12.20
2023-04-13T02:24:32.867Z,12.30
2023-04-13T02:27:02.188Z,12.30
2023-04-13T02:29:29.694Z,12.40
2023-04-13T02:31:57.888Z,12.40
2023-04-13T02:34:26.219Z,12.20
2023-04-13T02:36:53.698Z,12.20
2023-04-13T02:39:21.042Z,12.30
2023-04-13T02:41:49.439Z,12.30
2023-04-13T02:44:22.223Z,12.30
2023-04-13T02:46:56.834Z,12.30
2023-04-13T02:49:25.166Z,12.30
2023-04-13T02:52:04.518Z,12.30
2023-04-13T02:54:54.635Z,12.40
2023-04-13T02:57:25.417Z,12.40
2023-04-13T02:59:54.703Z,12.40
2023-04-13T03:02:26.916Z,12.30
2023-04-13T03:04:54.967Z,12.30
2023-04-13T03:07:24.559Z,12.20
2023-04-13T03:09:53.388Z,12.30
2023-04-13T03:12:20.769Z,12.30
2023-04-13T03:14:51.818Z,12.20
2023-04-13T03:17:22.308Z,12.10
2023-04-13T03:19:50.884Z,12.00
2023-04-13T03:22:20.936Z,12.10
2023-04-13T03:24:49.218Z,12.10
2023-04-13T03:27:24.053Z,12.20
2023-04-13T03:29:54.417Z,12.30
2023-04-13T03:32:23.350Z,12.40
2023-04-13T03:34:57.799Z,12.40
2023-04-13T03:37:29.805Z,12.30
2023-04-13T03:40:00.590Z,12.40
2023-04-13T03:42:29.659Z,12.30
2023-04-13T03:44:59.272Z,12.30
2023-04-13T03:47:26.818Z,12.30
2023-04-13T03:49:54.396Z,12.30
2023-04-13T03:52:21.924Z,12.20
2023-04-13T03:54:55.790Z,12.30
2023-04-13T03:57:23.975Z,12.30
2023-04-13T03:59:51.815Z,12.20
2023-04-13T04:02:27.999Z,12.10
2023-04-13T04:04:56.319Z,12.10
2023-04-13T04:07:23.940Z,11.90
2023-04-13T04:09:51.700Z,11.90
2023-04-13T04:12:22.515Z,11.80
2023-04-13T04:14:50.810Z,11.80
2023-04-13T04:17:23.986Z,11.80
2023-04-13T04:19:51.326Z,11.80
2023-04-13T04:22:22.544Z,11.90
2023-04-13T04:24:49.946Z,12.00
2023-04-13T04:27:17.331Z,12.10
2023-04-13T04:29:49.581Z,12.00
2023-04-13T04:32:24.324Z,12.00
2023-04-13T04:34:53.549Z,12.10
2023-04-13T04:37:23.278Z,12.00
2023-04-13T04:40:11.147Z,11.90
2023-04-13T04:42:39.675Z,12.00
2023-04-13T04:45:17.130Z,11.90
2023-04-13T04:47:49.784Z,11.70
2023-04-13T04:50:23.739Z,11.70
2023-04-13T04:52:57.692Z,11.70
2023-04-13T04:55:25.908Z,11.70
2023-04-13T04:57:53.346Z,11.60
2023-04-13T05:00:25.326Z,11.40
2023-04-13T05:03:07.837Z,11.40
2023-04-13T05:05:38.364Z,11.40
2023-04-13T05:08:11.580Z,11.40
2023-04-13T05:10:47.878Z,11.40
2023-04-13T05:13:15.284Z,11.50
2023-04-13T05:15:49.014Z,11.50
2023-04-13T05:18:18.599Z,11.60
2023-04-13T05:20:45.932Z,11.60
2023-04-13T05:23:13.168Z,11.70
2023-04-13T05:25:47.529Z,11.70
2023-04-13T05:28:18.967Z,11.70
2023-04-13T05:30:48.454Z,11.80
2023-04-13T05:33:16.939Z,11.80
2023-04-13T05:35:44.915Z,11.90
2023-04-13T05:38:12.969Z,11.90
2023-04-13T05:40:41.248Z,11.90
2023-04-13T05:43:09.413Z,11.80
2023-04-13T05:45:43.500Z,11.90
2023-04-13T05:48:14.800Z,11.90
2023-04-13T05:50:44.371Z,11.90
2023-04-13T05:53:13.375Z,11.90
2023-04-13T05:55:48.342Z,11.90
2023-04-13T05:58:18.676Z,12.00
2023-04-13T06:00:46.212Z,12.00
2023-04-13T06:03:20.593Z,12.00
2023-04-13T06:05:48.607Z,11.90
2023-04-13T06:08:16.919Z,12.00
2023-04-13T06:10:47.002Z,12.10
2023-04-13T06:13:14.645Z,12.20
2023-04-13T06:15:42.320Z,12.20
2023-04-13T06:18:09.554Z,12.10
2023-04-13T06:20:36.852Z,12.20
2023-04-13T06:23:04.098Z,12.10
2023-04-13T06:25:31.827Z,12.10
2023-04-13T06:28:02.407Z,12.10
2023-04-13T06:30:31.876Z,12.00
2023-04-13T06:33:04.287Z,11.90
2023-04-13T06:35:33.318Z,12.00
2023-04-13T06:38:01.551Z,12.00
2023-04-13T06:40:36.442Z,12.10
2023-04-13T06:43:13.496Z,12.10
2023-04-13T06:45:59.549Z,12.00
2023-04-13T06:48:29.945Z,11.90
2023-04-13T06:51:00.268Z,12.00
2023-04-13T06:53:29.748Z,12.00
2023-04-13T06:55:57.546Z,12.00
2023-04-13T06:58:25.516Z,12.00
2023-04-13T07:00:52.838Z,11.90
2023-04-13T07:03:20.670Z,11.90
2023-04-13T07:05:48.230Z,11.90
2023-04-13T07:08:19.210Z,11.90
2023-04-13T07:10:47.307Z,12.00
2023-04-13T07:13:24.678Z,12.00
2023-04-13T07:15:52.190Z,12.10
2023-04-13T07:18:19.729Z,12.10
2023-04-13T07:20:49.043Z,12.10
2023-04-13T07:23:19.823Z,12.10
2023-04-13T07:25:47.101Z,12.10
2023-04-13T07:28:20.207Z,12.20
2023-04-13T07:30:50.218Z,12.10
2023-04-13T07:33:18.004Z,12.10
2023-04-13T07:35:46.438Z,12.10
2023-04-13T07:38:14.698Z,12.10
2023-04-13T07:40:42.582Z,12.10
2023-04-13T07:43:12.445Z,12.10
2023-04-13T07:45:43.256Z,12.10
2023-04-13T07:48:11.824Z,12.20
2023-04-13T07:50:42.651Z,12.10
2023-04-13T07:53:14.102Z,12.20
2023-04-13T07:55:42.496Z,12.30
2023-04-13T07:58:10.443Z,12.30
2023-04-13T08:00:38.136Z,12.30
2023-04-13T08:03:07.213Z,12.30
2023-04-13T08:05:36.817Z,12.40
2023-04-13T08:08:04.713Z,12.50
2023-04-13T08:10:32.509Z,12.60
2023-04-13T08:13:03.644Z,12.60
2023-04-13T08:15:31.093Z,12.60
2023-04-13T08:18:00.613Z,12.60
2023-04-13T08:20:29.999Z,12.60
2023-04-13T08:22:58.457Z,12.60
2023-04-13T08:25:25.928Z,12.70
2023-04-13T08:27:53.190Z,12.60
2023-04-13T08:30:20.532Z,12.70
2023-04-13T08:32:54.185Z,12.60
2023-04-13T08:35:23.554Z,12.60
2023-04-13T08:37:51.949Z,12.70
2023-04-13T08:40:20.251Z,12.70
2023-04-13T08:42:47.920Z,12.60
2023-04-13T08:45:16.417Z,12.60
2023-04-13T08:47:50.595Z,12.50
2023-04-13T08:50:22.573Z,12.50
2023-04-13T08:52:54.172Z,12.30
2023-04-13T08:55:23.025Z,12.40
2023-04-13T08:57:56.815Z,12.30
2023-04-13T09:00:25.318Z,12.40
2023-04-13T09:03:05.625Z,12.50
2023-04-13T09:05:41.476Z,12.50
2023-04-13T09:08:13.787Z,12.60
2023-04-13T09:10:44.198Z,12.60
2023-04-13T09:13:12.701Z,12.60
2023-04-13T09:15:41.463Z,12.50
2023-04-13T09:18:33.719Z,12.30
2023-04-13T09:21:06.831Z,12.20
2023-04-13T09:23:34.520Z,12.20
2023-04-13T09:26:08.900Z,12.30
2023-04-13T09:28:47.827Z,12.30
2023-04-13T09:31:15.871Z,12.40
2023-04-13T09:33:51.895Z,12.50
2023-04-13T09:36:20.844Z,12.70
2023-04-13T09:38:53.253Z,12.80
2023-04-13T09:41:38.513Z,13.00
2023-04-13T09:44:17.935Z,13.00
2023-04-13T09:46:45.930Z,13.00
2023-04-13T09:49:13.532Z,13.10
2023-04-13T09:51:41.950Z,13.20
2023-04-13T09:54:11.555Z,13.40
2023-04-13T09:56:52.760Z,13.80
2023-04-13T09:59:22.790Z,14.10
2023-04-13T10:01:51.475Z,14.30
2023-04-13T10:04:19.084Z,14.40
2023-04-13T10:06:49.406Z,14.60
2023-04-13T10:09:16.944Z,15.00
2023-04-13T10:11:50.649Z,15.20
2023-04-13T10:14:28.046Z,15.10
2023-04-13T10:17:14.094Z,15.00
2023-04-13T10:19:48.316Z,14.80
2023-04-13T10:22:17.187Z,14.70
2023-04-13T10:24:44.940Z,14.70
2023-04-13T10:27:17.024Z,14.60
2023-04-13T10:29:45.085Z,14.50
2023-04-13T10:32:23.382Z,14.50
2023-04-13T10:34:52.484Z,14.60
2023-04-13T10:37:21.682Z,14.70
2023-04-13T10:40:00.317Z,14.60
2023-04-13T10:42:28.092Z,14.50
2023-04-13T10:44:55.337Z,14.50
2023-04-13T10:47:23.281Z,14.60
2023-04-13T10:49:52.263Z,14.50
2023-04-13T10:52:19.536Z,14.40
2023-04-13T10:54:47.157Z,14.50
2023-04-13T10:57:16.621Z,14.40
2023-04-13T11:02:23.978Z,14.30
2023-04-13T11:04:51.944Z,14.30
2023-04-13T11:07:23.821Z,14.40
2023-04-13T11:09:51.082Z,14.50
2023-04-13T11:12:19.357Z,14.60
2023-04-13T11:14:48.235Z,14.70
2023-04-13T11:17:17.391Z,14.70
2023-04-13T11:19:52.702Z,14.80
2023-04-13T11:22:25.877Z,14.80
2023-04-13T11:24:53.472Z,14.90
2023-04-13T11:27:22.001Z,14.50
2023-04-13T11:29:58.987Z,14.30
2023-04-13T11:32:26.646Z,13.90
2023-04-13T11:35:04.670Z,13.80
2023-04-13T11:37:37.652Z,13.80
2023-04-13T11:40:17.328Z,13.90
2023-04-13T11:42:46.990Z,13.80
2023-04-13T11:45:21.236Z,13.90
2023-04-13T11:47:53.386Z,14.00
2023-04-13T11:50:22.427Z,14.00
2023-04-13T11:52:52.258Z,14.00
2023-04-13T11:55:23.874Z,14.00
2023-04-13T11:57:53.356Z,14.00
2023-04-13T12:00:26.182Z,13.90
2023-04-13T12:05:30.082Z,13.90
2023-04-13T12:07:58.673Z,13.80
2023-04-13T12:10:37.108Z,13.90
2023-04-13T12:16:04.987Z,13.90
2023-04-13T12:18:46.673Z,14.00
2023-04-13T12:21:20.419Z,14.00
2023-04-13T12:23:55.590Z,14.00
2023-04-13T12:29:06.540Z,14.00
2023-04-13T12:31:35.899Z,14.10
2023-04-13T12:34:07.652Z,14.20
2023-04-13T12:36:36.417Z,14.30
2023-04-13T12:39:04.554Z,14.30
2023-04-13T12:41:33.846Z,14.40
2023-04-13T12:44:01.339Z,14.40
2023-04-13T12:46:28.971Z,14.60
2023-04-13T12:48:56.409Z,14.80
2023-04-13T12:51:23.701Z,15.00
2023-04-13T12:53:51.129Z,15.10
2023-04-13T12:56:18.455Z,15.00
2023-04-13T12:58:45.840Z,15.10
2023-04-13T13:01:14.517Z,15.30
2023-04-13T13:03:42.924Z,15.50
2023-04-13T13:06:10.402Z,15.60
2023-04-13T13:08:39.962Z,15.70
2023-04-13T13:11:11.137Z,15.60
2023-04-13T13:13:38.682Z,15.60
2023-04-13T13:16:06.217Z,15.60
2023-04-13T13:18:49.025Z,15.70
2023-04-13T13:21:18.530Z,15.60
2023-04-13T13:23:46.317Z,15.70
2023-04-13T13:26:24.022Z,15.10
2023-04-13T13:28:53.371Z,15.10
2023-04-13T13:31:20.813Z,15.00
2023-04-13T13:33:48.068Z,14.90
2023-04-13T13:36:15.405Z,15.00
2023-04-13T13:38:56.754Z,14.90
2023-04-13T13:41:25.426Z,14.70
2023-04-13T13:43:52.770Z,14.60
2023-04-13T13:46:20.059Z,14.50
2023-04-13T13:48:48.143Z,14.60
2023-04-13T13:51:44.686Z,14.80
2023-04-13T13:54:15.379Z,14.80
2023-04-13T13:56:42.629Z,14.80
2023-04-13T13:59:09.866Z,14.60
2023-04-13T14:01:37.997Z,14.40
2023-04-13T14:04:05.509Z,14.40
2023-04-13T14:06:33.338Z,14.40
2023-04-13T14:09:01.537Z,14.50
2023-04-13T14:11:30.164Z,14.60
2023-04-13T14:14:10.818Z,14.70
2023-04-13T14:16:42.158Z,14.60
2023-04-13T14:19:12.898Z,14.60
2023-04-13T14:21:42.799Z,14.70
2023-04-13T14:24:10.983Z,14.70
2023-04-13T14:26:38.842Z,14.70
2023-04-13T14:29:09.065Z,14.80
2023-04-13T14:31:39.983Z,14.80
2023-04-13T14:34:07.908Z,14.70
2023-04-13T14:36:35.652Z,14.70
2023-04-13T14:39:05.021Z,14.60
2023-04-13T14:41:32.347Z,14.60
2023-04-13T14:44:02.476Z,14.80
2023-04-13T14:46:29.988Z,14.80
2023-04-13T14:48:57.390Z,14.60
2023-04-13T14:51:24.988Z,14.70
2023-04-13T14:53:56.417Z,14.60
2023-04-13T14:56:24.469Z,14.40
2023-04-13T14:58:52.425Z,14.30
2023-04-13T15:01:21.919Z,14.30
2023-04-13T15:03:49.920Z,14.30
2023-04-13T15:06:18.836Z,14.40
2023-04-13T15:08:47.828Z,14.30
2023-04-13T15:11:16.154Z,14.20
2023-04-13T15:13:46.110Z,14.10
2023-04-13T15:16:16.934Z,14.10
2023-04-13T15:18:45.059Z,14.20
2023-04-13T15:21:13.037Z,14.20
2023-04-13T15:23:41.054Z,14.10
2023-04-13T15:26:15.417Z,14.10
2023-04-13T15:28:43.200Z,14.00
2023-04-13T15:31:10.516Z,13.90
2023-04-13T15:33:41.057Z,14.00
2023-04-13T15:36:16.675Z,14.00
2023-04-13T15:38:44.473Z,13.90
2023-04-13T15:41:12.370Z,14.00
2023-04-13T15:43:41.300Z,13.90
2023-04-13T15:46:09.028Z,13.90
2023-04-13T15:48:36.405Z,13.90
2023-04-13T15:51:03.863Z,13.90
2023-04-13T15:53:31.103Z,14.00
2023-04-13T15:55:58.300Z,14.00
2023-04-13T15:58:25.514Z,14.00
2023-04-13T16:01:03.876Z,14.00
2023-04-13T16:03:32.720Z,14.10
2023-04-13T16:06:00.916Z,14.10
2023-04-13T16:08:28.998Z,14.10
2023-04-13T16:10:56.336Z,14.10
2023-04-13T16:13:23.978Z,14.10
2023-04-13T16:15:57.284Z,14.00
2023-04-13T16:18:32.260Z,14.00
2023-04-13T16:21:02.496Z,13.80
2023-04-13T16:23:35.656Z,13.50
2023-04-13T16:26:03.008Z,13.10
2023-04-13T16:28:30.439Z,12.90
2023-04-13T16:30:58.025Z,12.80
2023-04-13T16:33:25.324Z,12.70
2023-04-13T16:35:52.655Z,12.40
2023-04-13T16:38:20.076Z,12.30
2023-04-13T16:40:47.430Z,12.20
2023-04-13T16:43:14.647Z,12.00
2023-04-13T16:45:43.678Z,11.90
2023-04-13T16:48:11.256Z,11.80
2023-04-13T16:50:38.680Z,11.70
2023-04-13T16:53:06.245Z,11.70
2023-04-13T16:55:33.896Z,11.50
2023-04-13T16:58:01.121Z,11.50
2023-04-13T17:00:29.281Z,11.40
2023-04-13T17:02:56.738Z,11.40
2023-04-13T17:05:28.271Z,11.30
2023-04-13T17:07:55.892Z,11.30
2023-04-13T17:10:23.266Z,11.20
2023-04-13T17:12:50.462Z,11.20
2023-04-13T17:15:19.611Z,11.20
2023-04-13T17:17:46.918Z,11.10
2023-04-13T17:20:16.775Z,11.10
2023-04-13T17:22:44.931Z,11.10
2023-04-13T17:25:12.111Z,11.10
2023-04-13T17:27:39.387Z,11.10
2023-04-13T17:30:07.555Z,11.00
2023-04-13T17:32:35.047Z,11.00
2023-04-13T17:35:02.890Z,10.70
2023-04-13T17:37:30.317Z,10.50
2023-04-13T17:39:57.652Z,10.30
2023-04-13T17:42:25.017Z,10.20
2023-04-13T17:44:52.282Z,10.20
2023-04-13T17:47:19.590Z,10.20
2023-04-13T17:49:47.156Z,10.20
2023-04-13T17:52:14.424Z,10.10
2023-04-13T17:54:41.794Z,9.90
2023-04-13T17:57:09.250Z,9.60
2023-04-13T17:59:36.508Z,9.50
2023-04-13T18:02:03.828Z,9.60
2023-04-13T18:04:31.689Z,9.60
2023-04-13T18:06:59.170Z,9.60
2023-04-13T18:09:28.307Z,9.70
2023-04-13T18:11:55.580Z,9.70
2023-04-13T18:14:22.940Z,9.70
2023-04-13T18:16:50.183Z,9.60
2023-04-13T18:19:17.575Z,9.50
2023-04-13T18:21:44.815Z,9.30
2023-04-13T18:24:12.017Z,9.10
2023-04-13T18:26:39.728Z,9.10
2023-04-13T18:29:07.980Z,9.10
2023-04-13T18:31:35.447Z,9.00
2023-04-13T18:34:03.318Z,9.00
2023-04-13T18:36:30.991Z,8.90
2023-04-13T18:38:58.201Z,8.90
2023-04-13T18:41:25.411Z,8.90
2023-04-13T18:43:52.633Z,8.90
2023-04-13T18:46:20.407Z,8.80
2023-04-13T18:48:47.666Z,8.80
2023-04-13T18:51:14.939Z,8.90
2023-04-13T18:53:42.229Z,8.80
2023-04-13T18:56:09.483Z,8.80
2023-04-13T18:58:36.900Z,8.70
2023-04-13T19:01:04.183Z,8.70
2023-04-13T19:03:31.679Z,8.70
2023-04-13T19:05:58.998Z,8.80
2023-04-13T19:08:26.240Z,8.70
2023-04-13T19:10:53.472Z,8.70
2023-04-13T19:13:20.846Z,8.70
2023-04-13T19:15:48.212Z,8.80
2023-04-13T19:18:15.531Z,8.80
2023-04-13T19:20:42.980Z,8.80
2023-04-13T19:23:10.265Z,8.90
2023-04-13T19:25:37.490Z,8.90
2023-04-13T19:28:04.948Z,9.00
2023-04-13T19:30:32.332Z,9.00
2023-04-13T19:32:59.689Z,9.00
2023-04-13T19:35:27.218Z,9.10
2023-04-13T19:37:55.113Z,9.20
2023-04-13T19:40:23.264Z,9.30
2023-04-13T19:42:50.677Z,9.30
2023-04-13T19:45:17.893Z,9.40
2023-04-13T19:47:45.835Z,9.40
2023-04-13T19:50:14.268Z,9.50
2023-04-13T19:52:42.504Z,9.60
2023-04-13T19:55:10.843Z,9.60
2023-04-13T19:57:41.941Z,9.70
2023-04-13T20:00:20.438Z,9.80
2023-04-13T20:02:49.990Z,9.90
2023-04-13T20:05:19.070Z,9.80
2023-04-13T20:07:46.540Z,9.70
2023-04-13T20:10:14.003Z,9.80
2023-04-13T20:12:41.277Z,9.80
2023-04-13T20:15:08.745Z,9.80
2023-04-13T20:17:36.220Z,9.90
2023-04-13T20:20:03.900Z,10.00
2023-04-13T20:22:31.189Z,9.90
2023-04-13T20:24:58.403Z,9.90
2023-04-13T20:27:25.649Z,9.80
2023-04-13T20:29:52.917Z,9.80
2023-04-13T20:32:21.650Z,9.80
2023-04-13T20:34:48.924Z,9.70
2023-04-13T20:37:18.296Z,9.70
2023-04-13T20:39:52.801Z,9.70
2023-04-13T20:42:22.097Z,9.60
2023-04-13T20:44:58.581Z,9.60
2023-04-13T20:47:31.441Z,9.60
2023-04-13T20:49:59.819Z,9.50
2023-04-13T20:52:29.883Z,9.50
2023-04-13T20:54:57.276Z,9.50
2023-04-13T20:57:24.527Z,9.50
2023-04-13T20:59:52.110Z,9.50
2023-04-13T21:02:19.461Z,9.50
2023-04-13T21:04:46.983Z,9.60
2023-04-13T21:07:15.346Z,9.60
2023-04-13T21:09:42.969Z,9.70
2023-04-13T21:12:10.248Z,9.70
2023-04-13T21:14:37.746Z,9.70
2023-04-13T21:17:04.987Z,9.70
2023-04-13T21:19:32.622Z,9.70
2023-04-13T21:22:00.021Z,9.70
2023-04-13T21:24:27.255Z,9.70
2023-04-13T21:26:54.627Z,9.80
2023-04-13T21:29:22.017Z,9.80
2023-04-13T21:31:49.428Z,9.80
2023-04-13T21:34:17.050Z,9.80
2023-04-13T21:39:15.945Z,9.80
2023-04-13T21:41:43.200Z,9.80
2023-04-13T21:44:26.089Z,9.80
2023-04-13T21:46:57.100Z,9.80
2023-04-13T21:49:24.453Z,9.70
2023-04-13T21:51:51.661Z,9.70
2023-04-13T21:54:18.956Z,9.70
2023-04-13T21:56:46.736Z,9.70
2023-04-13T21:59:13.962Z,9.60
2023-04-13T22:01:41.240Z,9.60
2023-04-13T22:04:08.584Z,9.60
2023-04-13T22:06:35.962Z,9.60
2023-04-13T22:09:03.463Z,9.60
2023-04-13T22:11:30.927Z,9.60
2023-04-13T22:14:00.263Z,9.50
2023-04-13T22:16:28.347Z,9.60
2023-04-13T22:18:56.189Z,9.50
2023-04-13T22:21:23.477Z,9.60
2023-04-13T22:23:51.197Z,9.60
2023-04-13T22:26:18.440Z,9.60
2023-04-13T22:28:46.012Z,9.60
2023-04-13T22:31:13.340Z,9.60
2023-04-13T22:33:40.740Z,9.60
2023-04-13T22:36:20.577Z,9.60
2023-04-13T22:38:49.158Z,9.50
2023-04-13T22:41:16.430Z,9.50
2023-04-13T22:43:43.905Z,9.40
2023-04-13T22:46:11.195Z,9.40
2023-04-13T22:48:38.442Z,9.40
2023-04-13T22:51:05.888Z,9.40
2023-04-13T22:53:33.189Z,9.40
2023-04-13T22:56:00.776Z,9.40
2023-04-13T22:58:28.486Z,9.50
2023-04-13T23:00:55.998Z,9.50
2023-04-13T23:03:23.595Z,9.50
2023-04-13T23:05:51.127Z,9.50
2023-04-13T23:08:18.482Z,9.50
2023-04-13T23:10:45.745Z,9.50
2023-04-13T23:13:12.992Z,9.50
2023-04-13T23:15:40.333Z,9.50
2023-04-13T23:18:07.575Z,9.50
2023-04-13T23:20:34.821Z,9.50
2023-04-13T23:23:02.194Z,9.50
2023-04-13T23:25:29.448Z,9.50
2023-04-13T23:27:56.731Z,9.40
2023-04-13T23:30:23.972Z,9.40
2023-04-13T23:32:51.281Z,9.50
2023-04-13T23:35:18.508Z,9.40
2023-04-13T23:37:46.129Z,9.40
2023-04-13T23:40:13.762Z,9.50
2023-04-13T23:42:41.126Z,9.60
2023-04-13T23:45:08.993Z,9.70
2023-04-13T23:47:36.267Z,9.70
2023-04-13T23:50:03.904Z,9.70
2023-04-13T23:52:31.184Z,9.70
2023-04-13T23:54:58.383Z,9.70
2023-04-13T23:57:25.673Z,9.60
2023-04-13T23:59:57.088Z,9.60
